Gaoyao, China
Current Conditions -  °F | °C
As of 7:00 AM on Monday 22 Dec 2014 (Local Time) from ZGGG Reporting Station
Clear Clear  
Wind Chill: 43°   Ceiling: Unl
Heat Index: 48°   Visibility: 6mi
Dew Point: 23°   Wind: 11mph
Humidity: 37%   Direction: 10°N
Pressure: 30.33"   Gusts: NA
Location:  23.05°N, 112.47°E
Report Text: ZGGG 212300Z 01005MPS CAVOK 09/M05 Q1027 NOSIG
Loading
Personal Weather Stations






























Interactive Weather Map New forecast layout! Learn more

10-Day Weather Forecast

Advertisements
Track Severe Weather on mobile